Time;durP1;ratioP1;P1;durP2;ratioP2;P2;SDS_P1;SDS_P2;PMS_P1;PMS_P2;Temp;Humidity;BMP_temperature;BMP_pressure;BME280_temperature;BME280_humidity;BME280_pressure;Samples;Min_cycle;Max_cycle;Signal;HPM_P1;HPM_P2
2023/09/02 00:02:26;;;;;;;16.07;11.73;;;14.90;99.90;;;;;;5116679;28;20541;-62
2023/09/02 00:04:53;;;;;;;17.60;12.10;;;14.90;99.90;;;;;;5117140;28;20955;-62
2023/09/02 00:07:22;;;;;;;15.43;11.87;;;14.90;99.90;;;;;;5105858;28;20540;-62
2023/09/02 00:09:49;;;;;;;14.60;11.43;;;14.90;99.90;;;;;;5096642;28;20903;-62
2023/09/02 00:12:16;;;;;;;16.17;12.73;;;14.80;99.90;;;;;;5096908;28;20457;-62
2023/09/02 00:14:44;;;;;;;17.47;13.10;;;14.80;99.90;;;;;;5096596;28;20457;-62
2023/09/02 00:17:11;;;;;;;25.90;14.97;;;14.90;99.90;;;;;;5097147;28;20874;-62
2023/09/02 00:19:38;;;;;;;42.93;16.53;;;14.90;99.90;;;;;;5096313;28;20485;-62
2023/09/02 00:22:06;;;;;;;28.30;15.60;;;15.00;99.90;;;;;;5096666;28;20861;-62
2023/09/02 00:24:35;;;;;;;29.77;15.97;;;15.00;99.90;;;;;;5096390;28;20583;-62
2023/09/02 00:27:02;;;;;;;36.07;16.40;;;15.00;99.90;;;;;;5096392;28;20471;-62
2023/09/02 00:29:29;;;;;;;38.53;17.83;;;15.00;99.90;;;;;;5096479;28;20547;-62
2023/09/02 00:31:56;;;;;;;28.70;18.20;;;15.20;99.90;;;;;;5096664;28;20559;-62
2023/09/02 00:34:23;;;;;;;33.17;17.20;;;15.20;99.90;;;;;;5096176;28;20847;-62
2023/09/02 00:36:51;;;;;;;31.50;18.30;;;15.20;99.90;;;;;;5095914;28;20796;-62
2023/09/02 00:39:18;;;;;;;44.20;17.77;;;15.30;99.90;;;;;;5096784;28;20535;-62
2023/09/02 00:41:50;;;;;;;33.03;17.30;;;15.30;99.90;;;;;;5099081;28;20559;-62
2023/09/02 00:44:18;;;;;;;42.67;18.13;;;15.30;99.90;;;;;;5100088;28;20499;-62
2023/09/02 00:46:46;;;;;;;30.73;17.37;;;15.30;99.90;;;;;;5100214;28;20537;-62
2023/09/02 00:49:13;;;;;;;33.57;17.57;;;15.30;99.90;;;;;;5099672;28;20509;-62
2023/09/02 00:51:40;;;;;;;33.33;17.73;;;15.30;99.90;;;;;;5099879;28;20463;-62
2023/09/02 00:54:08;;;;;;;29.37;16.60;;;15.30;99.90;;;;;;5100194;28;20487;-62
2023/09/02 00:56:37;;;;;;;42.00;17.10;;;15.30;99.90;;;;;;5100044;28;20456;-61
2023/09/02 00:59:06;;;;;;;29.73;15.43;;;15.40;99.90;;;;;;5099974;28;20796;-62
2023/09/02 01:01:35;;;;;;;26.90;14.97;;;15.40;99.90;;;;;;5098990;28;20539;-62
2023/09/02 01:04:04;;;;;;;30.20;16.33;;;15.40;99.90;;;;;;5098996;28;20492;-62
2023/09/02 01:06:32;;;;;;;28.83;15.63;;;15.30;99.90;;;;;;5098581;28;20563;-62
2023/09/02 01:09:01;;;;;;;26.67;15.07;;;15.30;99.90;;;;;;5099851;28;20470;-62
2023/09/02 01:11:28;;;;;;;21.60;15.10;;;15.30;99.90;;;;;;5099661;28;20799;-62
2023/09/02 01:13:55;;;;;;;26.27;15.30;;;15.30;99.90;;;;;;5099411;28;20546;-62
2023/09/02 01:16:25;;;;;;;22.80;15.70;;;15.30;99.90;;;;;;5099237;28;20554;-62
2023/09/02 01:18:52;;;;;;;23.07;14.30;;;15.40;99.90;;;;;;5099574;28;20772;-61
2023/09/02 01:21:55;;;;;;;21.73;14.77;;;15.40;99.90;;;;;;5099247;28;20457;-62
2023/09/02 01:24:44;;;;;;;27.87;16.30;;;15.40;99.90;;;;;;5096071;28;20484;-62
2023/09/02 01:27:21;;;;;;;29.80;16.60;;;15.40;99.90;;;;;;5099203;28;20460;-62
2023/09/02 01:29:55;;;;;;;25.37;17.20;;;15.40;99.90;;;;;;5098876;28;20451;-62
2023/09/02 01:32:23;;;;;;;23.73;16.63;;;15.40;99.90;;;;;;5099229;28;20460;-62
2023/09/02 01:34:51;;;;;;;25.80;15.80;;;15.40;99.90;;;;;;5098879;28;20452;-62
2023/09/02 01:37:20;;;;;;;23.77;15.17;;;15.40;99.90;;;;;;5098485;28;20960;-62
2023/09/02 01:39:50;;;;;;;22.80;15.50;;;15.40;99.90;;;;;;5098836;28;20756;-62
2023/09/02 01:42:20;;;;;;;25.30;15.80;;;15.40;99.90;;;;;;5099227;28;20518;-62
2023/09/02 01:44:48;;;;;;;21.00;15.47;;;15.40;99.90;;;;;;5099194;28;20540;-62
2023/09/02 01:47:16;;;;;;;23.27;15.67;;;15.40;99.90;;;;;;5099037;28;20555;-62
2023/09/02 01:49:46;;;;;;;26.63;17.03;;;15.40;99.90;;;;;;5098451;28;20460;-61
2023/09/02 01:52:14;;;;;;;23.17;14.60;;;15.30;99.90;;;;;;5098028;28;20554;-61
2023/09/02 01:54:43;;;;;;;25.20;16.63;;;15.30;99.90;;;;;;5099028;28;20453;-61
2023/09/02 01:57:10;;;;;;;26.63;17.60;;;15.30;99.90;;;;;;5098821;28;20464;-61
2023/09/02 01:59:38;;;;;;;24.97;18.03;;;15.20;99.90;;;;;;5098473;28;20960;-62
2023/09/02 02:02:05;;;;;;;26.37;18.50;;;15.10;99.90;;;;;;5098261;28;20457;-61
2023/09/02 02:04:35;;;;;;;46.70;17.70;;;15.20;99.90;;;;;;5098385;28;20873;-61
2023/09/02 02:07:07;;;;;;;20.13;15.00;;;15.10;99.90;;;;;;5097628;28;20892;-61
2023/09/02 02:09:40;;;;;;;23.60;15.60;;;15.10;99.90;;;;;;5098410;28;20565;-61
2023/09/02 02:12:08;;;;;;;26.50;16.40;;;15.20;99.90;;;;;;5098553;28;20764;-62
2023/09/02 02:14:36;;;;;;;22.97;16.53;;;15.20;99.90;;;;;;5098445;28;20456;-61
2023/09/02 02:17:07;;;;;;;28.00;16.57;;;15.20;99.90;;;;;;5098238;28;20456;-61
2023/09/02 02:19:34;;;;;;;26.70;15.70;;;15.20;99.90;;;;;;5097865;28;20456;-61
2023/09/02 02:22:02;;;;;;;26.50;16.77;;;15.20;99.90;;;;;;5098044;28;20460;-61
2023/09/02 02:24:29;;;;;;;24.40;17.00;;;15.20;99.90;;;;;;5097882;28;20578;-61
2023/09/02 02:26:56;;;;;;;25.57;15.97;;;15.20;99.90;;;;;;5098404;28;20484;-61
2023/09/02 02:29:23;;;;;;;26.00;15.90;;;15.20;99.90;;;;;;5098286;28;20547;-61
2023/09/02 02:31:50;;;;;;;23.73;16.00;;;15.10;99.90;;;;;;5098303;28;20554;-61
2023/09/02 02:34:19;;;;;;;22.83;15.10;;;15.20;99.90;;;;;;5097853;28;20486;-61
2023/09/02 02:36:46;;;;;;;26.77;16.80;;;15.10;99.90;;;;;;5097130;28;20464;-61
2023/09/02 02:39:14;;;;;;;26.13;16.90;;;15.10;99.90;;;;;;5097787;28;20551;-61
2023/09/02 02:41:41;;;;;;;23.60;16.77;;;15.10;99.90;;;;;;5097489;28;20456;-61
2023/09/02 02:44:08;;;;;;;27.50;17.23;;;15.10;99.90;;;;;;5097708;28;20484;-61
2023/09/02 02:46:35;;;;;;;26.70;18.37;;;15.10;99.90;;;;;;5097891;28;20933;-61
2023/09/02 02:49:02;;;;;;;31.90;19.27;;;15.20;99.90;;;;;;5097845;28;20891;-62
2023/09/02 02:51:31;;;;;;;27.10;16.67;;;15.20;99.90;;;;;;5096395;28;20466;-61
2023/09/02 02:53:58;;;;;;;27.70;17.77;;;15.20;99.90;;;;;;5097472;28;20555;-61
2023/09/02 02:56:25;;;;;;;25.77;16.73;;;15.10;99.90;;;;;;5098052;28;20452;-61
2023/09/02 02:58:52;;;;;;;24.27;15.80;;;15.10;99.90;;;;;;5097816;28;20460;-61
2023/09/02 03:01:20;;;;;;;22.93;16.97;;;15.10;99.90;;;;;;5097741;28;20828;-61
2023/09/02 03:03:48;;;;;;;19.60;14.50;;;15.10;99.90;;;;;;5096586;28;20953;-61
2023/09/02 03:06:18;;;;;;;23.87;16.27;;;15.10;99.90;;;;;;5097261;28;20499;-61
2023/09/02 03:08:47;;;;;;;22.67;16.50;;;15.10;99.90;;;;;;5097603;28;20456;-60
2023/09/02 03:11:14;;;;;;;24.50;16.33;;;15.20;99.90;;;;;;5097349;28;20725;-61
2023/09/02 03:13:41;;;;;;;23.77;16.70;;;15.20;99.90;;;;;;5097574;28;20745;-61
2023/09/02 03:16:09;;;;;;;22.87;16.00;;;15.20;99.90;;;;;;5097226;28;20885;-60
2023/09/02 03:18:36;;;;;;;21.37;17.17;;;15.10;99.90;;;;;;5097584;28;20457;-60
2023/09/02 03:21:03;;;;;;;23.30;17.27;;;15.20;99.90;;;;;;5097498;28;20890;-61
2023/09/02 03:23:31;;;;;;;19.50;15.67;;;15.20;99.90;;;;;;5096864;28;20463;-61
2023/09/02 03:26:07;;;;;;;19.47;14.43;;;15.20;99.90;;;;;;5097187;28;20488;-61
2023/09/02 03:28:34;;;;;;;22.77;17.27;;;15.30;99.90;;;;;;5097433;28;20972;-61
2023/09/02 03:31:08;;;;;;;21.00;16.93;;;15.30;99.90;;;;;;5097332;28;20546;-61
2023/09/02 03:33:34;;;;;;;21.30;16.63;;;15.30;99.90;;;;;;5097331;28;20456;-60
2023/09/02 03:36:02;;;;;;;25.77;18.33;;;15.30;99.90;;;;;;5096869;28;20480;-61
2023/09/02 03:38:30;;;;;;;21.43;16.80;;;15.30;99.90;;;;;;5097464;28;20815;-61
2023/09/02 03:40:59;;;;;;;26.93;19.23;;;15.30;99.90;;;;;;5097509;28;20510;-60
2023/09/02 03:43:26;;;;;;;22.33;16.10;;;15.30;99.90;;;;;;5096197;28;20457;-61
2023/09/02 03:45:53;;;;;;;20.60;16.17;;;15.30;99.90;;;;;;5096469;28;20499;-61
2023/09/02 03:48:20;;;;;;;26.20;18.10;;;15.30;99.90;;;;;;5097191;28;20462;-60
2023/09/02 03:51:03;;;;;;;21.70;16.63;;;15.20;99.90;;;;;;5097165;28;20768;-60
2023/09/02 03:53:31;;;;;;;25.20;19.10;;;15.20;99.90;;;;;;5097390;28;20460;-61
2023/09/02 03:55:59;;;;;;;25.47;19.30;;;15.30;99.90;;;;;;5096936;28;20973;-60
2023/09/02 03:58:27;;;;;;;22.60;17.57;;;15.30;99.90;;;;;;5097159;28;20465;-60
2023/09/02 04:00:54;;;;;;;24.83;17.67;;;15.20;99.90;;;;;;5096883;28;20944;-60
2023/09/02 04:03:21;;;;;;;26.90;17.90;;;15.30;99.90;;;;;;5097078;28;20543;-60
2023/09/02 04:05:49;;;;;;;21.00;15.30;;;15.30;99.90;;;;;;5096987;28;20492;-61
2023/09/02 04:08:19;;;;;;;21.50;16.53;;;15.20;99.90;;;;;;5096766;28;20452;-60
2023/09/02 04:10:50;;;;;;;21.93;16.90;;;15.30;99.90;;;;;;5097202;28;20551;-60
2023/09/02 04:13:19;;;;;;;21.40;16.07;;;15.30;99.90;;;;;;5096825;28;20466;-60
2023/09/02 04:15:47;;;;;;;25.20;17.67;;;15.30;99.90;;;;;;5099420;28;20509;-60
2023/09/02 04:18:14;;;;;;;21.20;15.33;;;15.30;99.90;;;;;;5100905;28;20725;-60
2023/09/02 04:20:41;;;;;;;20.17;15.67;;;15.30;99.90;;;;;;5100597;28;20456;-60
2023/09/02 04:23:08;;;;;;;23.90;17.13;;;15.20;99.90;;;;;;5100655;28;20463;-60
2023/09/02 04:25:45;;;;;;;22.77;16.73;;;15.30;99.90;;;;;;5100379;28;20491;-60
2023/09/02 04:28:12;;;;;;;20.73;15.93;;;15.30;99.90;;;;;;5100048;28;20463;-60
2023/09/02 04:30:41;;;;;;;23.23;16.47;;;15.30;99.90;;;;;;5100408;28;20460;-60
2023/09/02 04:33:08;;;;;;;22.53;16.53;;;15.30;99.90;;;;;;5100706;28;20452;-61
2023/09/02 04:35:38;;;;;;;21.20;16.43;;;15.40;99.90;;;;;;5099613;28;20483;-60
2023/09/02 04:38:06;;;;;;;21.53;17.27;;;15.40;99.90;;;;;;5100377;28;20487;-60
2023/09/02 04:40:36;;;;;;;21.23;16.03;;;15.40;99.90;;;;;;5100236;28;20488;-60
2023/09/02 04:43:04;;;;;;;23.23;17.07;;;15.40;99.90;;;;;;5100204;28;20582;-61
2023/09/02 04:45:33;;;;;;;18.87;15.60;;;15.40;99.90;;;;;;5099592;28;20514;-60
2023/09/02 04:48:02;;;;;;;23.30;16.53;;;15.40;99.90;;;;;;5099885;28;20759;-60
2023/09/02 04:50:29;;;;;;;27.00;15.47;;;15.40;99.90;;;;;;5100002;28;20460;-60
2023/09/02 04:52:57;;;;;;;18.53;14.50;;;15.40;99.90;;;;;;5100275;28;20456;-61
2023/09/02 04:55:25;;;;;;;20.30;14.80;;;15.50;99.90;;;;;;5099890;28;20448;-60
2023/09/02 04:57:52;;;;;;;20.93;15.13;;;15.40;99.90;;;;;;5099500;28;20456;-61
2023/09/02 05:00:21;;;;;;;22.97;15.30;;;15.40;99.90;;;;;;5100041;28;20787;-60
2023/09/02 05:02:48;;;;;;;20.03;14.60;;;15.50;99.90;;;;;;5099941;28;20558;-60
2023/09/02 05:05:17;;;;;;;17.17;14.03;;;15.50;99.90;;;;;;5099302;28;20499;-61
2023/09/02 05:07:45;;;;;;;19.60;14.80;;;15.50;99.90;;;;;;5099153;28;20464;-60
2023/09/02 05:10:12;;;;;;;17.63;13.67;;;15.50;99.90;;;;;;5099459;28;20463;-60
2023/09/02 05:12:40;;;;;;;16.03;13.00;;;15.50;99.90;;;;;;5099696;28;20734;-60
2023/09/02 05:15:09;;;;;;;19.40;12.93;;;15.40;99.90;;;;;;5099461;28;20456;-61
2023/09/02 05:17:36;;;;;;;18.37;13.63;;;15.50;99.90;;;;;;5099410;28;20945;-60
2023/09/02 05:20:04;;;;;;;18.47;13.50;;;15.50;99.90;;;;;;5099545;28;20457;-60
2023/09/02 05:22:33;;;;;;;15.93;12.80;;;15.50;99.90;;;;;;5099713;28;20753;-60
2023/09/02 05:25:01;;;;;;;15.43;12.23;;;15.50;99.90;;;;;;5099482;28;20452;-60
2023/09/02 05:27:28;;;;;;;16.60;13.50;;;15.50;99.90;;;;;;5098304;28;20462;-61
2023/09/02 05:29:55;;;;;;;15.03;13.23;;;15.50;99.90;;;;;;5099173;28;20453;-61
2023/09/02 05:32:22;;;;;;;13.87;12.47;;;15.50;99.90;;;;;;5099260;28;20909;-60
2023/09/02 05:34:50;;;;;;;16.03;12.63;;;15.50;99.90;;;;;;5099012;28;20889;-60
2023/09/02 05:37:17;;;;;;;17.17;13.00;;;15.60;99.90;;;;;;5098730;28;20572;-60
2023/09/02 05:39:45;;;;;;;15.10;13.20;;;15.60;99.90;;;;;;5099089;28;20449;-60
2023/09/02 05:42:13;;;;;;;13.37;11.10;;;15.60;99.90;;;;;;5099008;28;20747;-61
2023/09/02 05:44:41;;;;;;;15.77;11.30;;;15.70;99.90;;;;;;5098974;28;20547;-60
2023/09/02 05:47:08;;;;;;;14.80;12.53;;;15.80;99.90;;;;;;5098973;28;20492;-61
2023/09/02 05:49:37;;;;;;;14.43;12.10;;;15.90;99.90;;;;;;5098130;28;20470;-60
2023/09/02 05:52:06;;;;;;;16.30;11.70;;;16.00;99.90;;;;;;5098441;28;20464;-61
2023/09/02 05:54:33;;;;;;;14.13;11.03;;;16.10;99.90;;;;;;5099165;28;20506;-60
2023/09/02 05:57:02;;;;;;;17.07;11.83;;;16.00;99.90;;;;;;5099175;28;20830;-60
2023/09/02 05:59:29;;;;;;;13.63;12.13;;;16.10;99.90;;;;;;5098560;28;20464;-61
2023/09/02 06:01:57;;;;;;;14.77;10.90;;;16.30;99.90;;;;;;5098772;28;20460;-61
2023/09/02 06:04:24;;;;;;;12.17;10.90;;;16.30;99.90;;;;;;5098782;28;20486;-61
2023/09/02 06:06:51;;;;;;;12.73;10.63;;;16.30;99.90;;;;;;5098615;28;20492;-60
2023/09/02 06:09:18;;;;;;;15.73;10.73;;;16.40;99.90;;;;;;5098200;28;20892;-61
2023/09/02 06:11:45;;;;;;;13.23;10.93;;;16.40;99.90;;;;;;5098422;28;20509;-61
2023/09/02 06:14:14;;;;;;;11.67;9.40;;;16.40;99.90;;;;;;5098445;28;20972;-61
2023/09/02 06:16:41;;;;;;;12.00;10.67;;;16.50;99.90;;;;;;5098478;28;20460;-61
2023/09/02 06:19:10;;;;;;;12.20;10.33;;;16.50;99.90;;;;;;5098721;28;20464;-61
2023/09/02 06:21:37;;;;;;;11.60;10.40;;;16.50;99.90;;;;;;5098144;28;20462;-61
2023/09/02 06:24:05;;;;;;;12.00;10.67;;;16.60;99.90;;;;;;5098405;28;20889;-61
2023/09/02 06:26:32;;;;;;;11.33;10.10;;;16.70;99.90;;;;;;5098055;28;20495;-61
2023/09/02 06:28:59;;;;;;;11.47;10.30;;;16.80;99.90;;;;;;5098484;28;20463;-61
2023/09/02 06:31:28;;;;;;;11.37;10.23;;;16.90;99.90;;;;;;5097895;28;20749;-61
2023/09/02 06:33:55;;;;;;;12.80;10.00;;;16.90;99.90;;;;;;5097981;28;20893;-60
2023/09/02 06:36:22;;;;;;;11.37;10.17;;;17.00;99.90;;;;;;5097391;28;20480;-60
2023/09/02 06:38:50;;;;;;;9.90;8.87;;;17.10;99.90;;;;;;5097944;28;20456;-61
2023/09/02 06:41:17;;;;;;;11.63;9.70;;;17.10;99.90;;;;;;5098327;28;20464;-61
2023/09/02 06:43:45;;;;;;;10.43;9.33;;;17.10;99.90;;;;;;5097413;28;20793;-61
2023/09/02 06:46:15;;;;;;;13.13;10.13;;;17.20;99.90;;;;;;5097439;28;20805;-60
2023/09/02 06:48:44;;;;;;;11.27;10.03;;;17.20;99.90;;;;;;5098222;28;20908;-61
2023/09/02 06:51:12;;;;;;;11.40;9.00;;;17.20;99.90;;;;;;5097937;28;20475;-61
2023/09/02 06:53:40;;;;;;;10.10;9.00;;;17.20;99.90;;;;;;5097376;28;20463;-61
2023/09/02 06:56:08;;;;;;;11.07;8.87;;;17.30;99.90;;;;;;5097744;28;20539;-61
2023/09/02 06:58:36;;;;;;;10.40;8.83;;;17.40;99.90;;;;;;5097618;28;20467;-61
2023/09/02 07:01:03;;;;;;;11.77;8.70;;;17.40;99.90;;;;;;5097684;28;20514;-62
2023/09/02 07:03:30;;;;;;;10.03;8.97;;;17.40;99.90;;;;;;5097350;28;20456;-62
2023/09/02 07:06:06;;;;;;;13.20;9.37;;;17.60;99.90;;;;;;5096478;28;20484;-62
2023/09/02 07:08:33;;;;;;;9.17;8.07;;;17.60;99.90;;;;;;5097440;28;20459;-62
2023/09/02 07:11:01;;;;;;;9.67;8.67;;;17.60;99.90;;;;;;5097533;28;20460;-62
2023/09/02 07:13:28;;;;;;;8.43;7.63;;;17.60;99.90;;;;;;5097159;28;20811;-62
2023/09/02 07:16:02;;;;;;;9.70;8.70;;;17.60;99.90;;;;;;5096652;28;20932;-62
2023/09/02 07:18:29;;;;;;;9.23;8.27;;;17.70;99.90;;;;;;5096638;28;20456;-62
2023/09/02 07:20:59;;;;;;;9.20;8.10;;;17.90;99.90;;;;;;5097054;28;20551;-62
2023/09/02 07:23:29;;;;;;;10.07;9.07;;;17.90;99.90;;;;;;5096726;28;20479;-62
2023/09/02 07:25:59;;;;;;;9.63;8.73;;;18.00;99.90;;;;;;5096459;28;20456;-63
2023/09/02 07:28:26;;;;;;;8.50;7.70;;;18.10;99.90;;;;;;5096479;28;20460;-62
2023/09/02 07:30:54;;;;;;;8.00;7.20;;;18.10;99.90;;;;;;5097562;28;20499;-62
2023/09/02 07:33:21;;;;;;;8.23;7.20;;;18.10;99.90;;;;;;5096894;28;20458;-62
2023/09/02 07:35:48;;;;;;;8.50;7.70;;;18.20;99.90;;;;;;5103687;28;20485;-63
2023/09/02 07:38:15;;;;;;;9.13;8.17;;;18.30;99.90;;;;;;5136380;28;20454;-63
2023/09/02 07:40:44;;;;;;;8.10;7.30;;;18.50;99.90;;;;;;5136515;28;20929;-62
2023/09/02 07:43:12;;;;;;;8.80;8.00;;;18.60;99.90;;;;;;5136965;28;20461;-63
2023/09/02 07:45:40;;;;;;;7.80;7.10;;;18.60;99.90;;;;;;5136437;28;20417;-63
2023/09/02 07:48:07;;;;;;;8.27;7.47;;;18.80;99.90;;;;;;5136949;28;20494;-64
2023/09/02 07:50:35;;;;;;;9.00;8.10;;;18.90;99.90;;;;;;5140507;27;20486;-62
2023/09/02 07:53:02;;;;;;;8.00;7.07;;;19.00;99.90;;;;;;5142330;27;20541;-63
2023/09/02 07:55:29;;;;;;;10.30;7.20;;;19.10;99.90;;;;;;5142287;27;20458;-62
2023/09/02 07:57:59;;;;;;;6.67;6.07;;;19.20;99.90;;;;;;5141798;27;20882;-63
2023/09/02 08:00:28;;;;;;;7.53;6.83;;;19.40;99.90;;;;;;5142032;27;20549;-62
2023/09/02 08:02:55;;;;;;;6.60;5.63;;;19.40;99.90;;;;;;5142290;27;20888;-62
2023/09/02 08:05:23;;;;;;;7.90;7.10;;;19.50;99.90;;;;;;5141614;27;20753;-62
2023/09/02 08:07:50;;;;;;;7.53;5.37;;;19.60;99.90;;;;;;5141178;27;20490;-62
2023/09/02 08:10:17;;;;;;;6.20;5.60;;;19.60;99.90;;;;;;5141926;27;20454;-61
2023/09/02 08:12:45;;;;;;;6.10;5.50;;;19.60;99.90;;;;;;5142138;27;20486;-61
2023/09/02 08:15:14;;;;;;;6.67;6.07;;;19.70;99.90;;;;;;5142204;27;20531;-61
2023/09/02 08:17:43;;;;;;;6.00;5.40;;;19.70;99.90;;;;;;5141487;27;20549;-62
2023/09/02 08:20:11;;;;;;;5.90;5.00;;;19.80;99.90;;;;;;5141947;27;20782;-61
2023/09/02 08:22:39;;;;;;;7.37;5.03;;;19.90;99.90;;;;;;5142003;27;20740;-61
2023/09/02 08:25:07;;;;;;;5.47;4.77;;;19.90;99.90;;;;;;5134986;27;20431;-61
2023/09/02 08:27:34;;;;;;;5.60;4.20;;;20.00;99.90;;;;;;5120385;28;20586;-61
2023/09/02 08:30:02;;;;;;;5.27;4.77;;;20.10;99.90;;;;;;5120370;28;20545;-61
2023/09/02 08:32:32;;;;;;;8.00;4.77;;;20.30;99.90;;;;;;5120534;28;20552;-61
2023/09/02 08:34:59;;;;;;;4.87;4.23;;;20.40;99.90;;;;;;5119615;28;20993;-61
2023/09/02 08:37:26;;;;;;;4.47;4.07;;;20.50;99.90;;;;;;5101519;28;20512;-61
2023/09/02 08:39:53;;;;;;;4.30;3.90;;;20.60;99.90;;;;;;5100249;28;20760;-60
2023/09/02 08:42:21;;;;;;;3.37;3.00;;;20.70;99.90;;;;;;5099658;28;20894;-60
2023/09/02 08:44:51;;;;;;;3.63;3.03;;;20.80;99.90;;;;;;5099583;28;20460;-60
2023/09/02 08:47:20;;;;;;;3.20;2.90;;;21.00;99.90;;;;;;5100607;28;20519;-60
2023/09/02 08:49:50;;;;;;;3.13;2.83;;;21.00;99.90;;;;;;5099689;28;20464;-60
2023/09/02 08:52:18;;;;;;;4.50;2.57;;;21.30;57.90;;;;;;5099399;28;20801;-60
2023/09/02 08:54:45;;;;;;;3.70;2.63;;;21.30;99.90;;;;;;5100112;28;20952;-60
2023/09/02 08:57:16;;;;;;;4.00;2.50;;;21.40;99.90;;;;;;5100069;28;20484;-60
2023/09/02 08:59:43;;;;;;;3.00;2.30;;;21.50;99.90;;;;;;5099816;28;20881;-60
2023/09/02 09:02:12;;;;;;;2.93;2.70;;;21.60;1.00;;;;;;5098560;28;20482;-60
2023/09/02 09:04:39;;;;;;;3.00;2.30;;;21.60;99.90;;;;;;5093960;28;20476;-59
2023/09/02 09:07:10;;;;;;;3.40;2.20;;;21.80;99.90;;;;;;5080918;28;20778;-60
2023/09/02 09:09:39;;;;;;;3.67;2.70;;;21.90;1.00;;;;;;5098956;28;20543;-60
2023/09/02 09:12:08;;;;;;;2.90;2.40;;;22.10;99.90;;;;;;5097791;28;20464;-60
2023/09/02 09:14:38;;;;;;;2.60;1.90;;;22.40;1.00;;;;;;5098737;28;20902;-60
2023/09/02 09:17:05;;;;;;;3.37;2.20;;;22.70;1.00;;;;;;5099130;28;20444;-59
2023/09/02 09:19:34;;;;;;;3.03;2.60;;;23.00;1.00;;;;;;5099143;28;20524;-59
2023/09/02 09:22:02;;;;;;;3.17;2.37;;;23.50;77.60;;;;;;5098983;28;20459;-59
2023/09/02 09:24:31;;;;;;;2.40;2.10;;;23.70;99.90;;;;;;5099309;28;20496;-58
2023/09/02 09:27:00;;;;;;;3.67;2.40;;;24.10;99.90;;;;;;5099260;28;20531;-60
2023/09/02 09:29:27;;;;;;;2.80;2.00;;;24.30;1.00;;;;;;5097989;28;20460;-60
2023/09/02 09:32:09;;;;;;;2.43;2.23;;;24.40;99.90;;;;;;5097826;28;20511;-59
2023/09/02 09:34:38;;;;;;;3.00;2.27;;;24.70;99.90;;;;;;5098355;28;20467;-59
2023/09/02 09:37:05;;;;;;;2.70;2.00;;;24.80;99.90;;;;;;5112943;28;20551;-59
2023/09/02 09:39:42;;;;;;;4.53;2.20;;;24.90;99.90;;;;;;5117710;28;20459;-59
2023/09/02 09:42:12;;;;;;;2.30;1.87;;;25.00;29.60;;;;;;5117850;28;20534;-58
2023/09/02 09:44:53;;;;;;;2.70;2.30;;;25.00;99.90;;;;;;5117984;28;20554;-59
2023/09/02 09:47:21;;;;;;;2.93;2.33;;;25.10;1.00;;;;;;5118417;28;20933;-58
2023/09/02 09:49:49;;;;;;;2.23;2.03;;;25.00;1.00;;;;;;5117879;28;20716;-58
2023/09/02 09:52:17;;;;;;;2.70;2.13;;;25.00;99.90;;;;;;5118051;28;20451;-59
2023/09/02 09:54:48;;;;;;;2.40;1.83;;;25.10;13.60;;;;;;5119727;28;20482;-59
2023/09/02 09:57:17;;;;;;;5.37;2.43;;;25.20;1.00;;;;;;5119637;28;20456;-58
2023/09/02 09:59:52;;;;;;;2.20;2.00;;;25.20;1.00;;;;;;5118522;28;20455;-58
2023/09/02 10:02:21;;;;;;;3.83;1.83;;;25.40;99.90;;;;;;5119123;28;20939;-58
2023/09/02 10:04:53;;;;;;;2.60;2.20;;;25.70;1.00;;;;;;5119125;28;20467;-59
2023/09/02 10:07:25;;;;;;;3.10;2.07;;;26.00;99.90;;;;;;5119328;28;20487;-58
2023/09/02 10:09:54;;;;;;;2.17;1.97;;;26.20;99.90;;;;;;5118474;28;20456;-58
2023/09/02 10:12:23;;;;;;;3.53;1.90;;;26.30;1.00;;;;;;5118704;28;20542;-58
2023/09/02 10:14:51;;;;;;;3.20;1.97;;;26.50;99.90;;;;;;5112799;28;20451;-59
2023/09/02 10:17:19;;;;;;;4.70;1.90;;;26.70;99.90;;;;;;5093807;28;20506;-58
2023/09/02 10:19:47;;;;;;;5.30;3.53;;;26.90;1.00;;;;;;5098323;28;20452;-58
2023/09/02 10:22:18;;;;;;;10.13;5.80;;;26.80;16.60;;;;;;5098546;28;20479;-58
2023/09/02 10:24:52;;;;;;;12.07;7.27;;;26.70;1.00;;;;;;5097376;28;20517;-58
2023/09/02 10:27:23;;;;;;;3.60;2.50;;;26.40;1.00;;;;;;5096921;28;20496;-58
2023/09/02 10:29:55;;;;;;;3.13;2.20;;;26.60;1.00;;;;;;5097307;28;20469;-58
2023/09/02 10:32:27;;;;;;;3.87;2.10;;;26.60;99.90;;;;;;5098292;28;20898;-58
2023/09/02 10:35:04;;;;;;;2.37;2.17;;;26.20;99.90;;;;;;5098422;28;20468;-59
2023/09/02 10:37:42;;;;;;;3.33;2.40;;;26.00;99.90;;;;;;5116153;28;20497;-58
2023/09/02 10:40:15;;;;;;;3.27;2.20;;;25.90;99.90;;;;;;5111478;28;20467;-59
2023/09/02 10:42:44;;;;;;;2.27;2.07;;;26.70;1.00;;;;;;5116086;28;20552;-58
2023/09/02 10:45:12;;;;;;;2.17;1.97;;;26.90;1.00;;;;;;5116400;28;20775;-58
2023/09/02 10:47:39;;;;;;;2.53;2.20;;;27.30;1.00;;;;;;5115728;28;20495;-58
2023/09/02 10:50:09;;;;;;;2.60;1.73;;;27.60;82.90;;;;;;5103364;28;20467;-60
2023/09/02 10:52:36;;;;;;;2.13;1.93;;;27.40;99.90;;;;;;5116703;28;20517;-60
2023/09/02 10:55:05;;;;;;;2.40;2.20;;;27.60;99.90;;;;;;5118117;28;20482;-60
2023/09/02 10:57:33;;;;;;;2.10;1.90;;;26.70;99.90;;;;;;5116180;28;20467;-60
2023/09/02 11:00:15;;;;;;;2.63;2.43;;;27.20;99.90;;;;;;5118026;28;20753;-60
2023/09/02 11:02:44;;;;;;;2.47;2.27;;;27.50;99.90;;;;;;5118293;28;20451;-60
2023/09/02 11:05:11;;;;;;;2.50;2.30;;;27.40;99.90;;;;;;5117337;28;20459;-60
2023/09/02 11:07:39;;;;;;;2.60;1.63;;;27.90;99.90;;;;;;5117382;28;20495;-60
2023/09/02 11:10:09;;;;;;;2.13;1.80;;;27.60;99.90;;;;;;5118246;28;20455;-60
2023/09/02 11:12:56;;;;;;;2.73;2.03;;;27.10;99.90;;;;;;5117475;28;20487;-60
2023/09/02 11:15:25;;;;;;;2.23;1.93;;;26.70;99.90;;;;;;5117558;28;20487;-60
2023/09/02 11:17:53;;;;;;;2.43;2.23;;;25.50;99.90;;;;;;5117866;28;20458;-60
2023/09/02 11:20:25;;;;;;;2.60;2.07;;;25.30;99.90;;;;;;5117480;28;20879;-60
2023/09/02 11:22:55;;;;;;;2.50;1.93;;;25.40;99.90;;;;;;5110498;28;20469;-61
2023/09/02 11:25:35;;;;;;;2.60;2.40;;;25.70;99.90;;;;;;5114169;28;20475;-60
2023/09/02 11:28:04;;;;;;;4.23;3.10;;;25.90;99.90;;;;;;5116915;28;20479;-60
2023/09/02 11:30:35;;;;;;;3.60;2.90;;;26.00;99.90;;;;;;5114220;28;20554;-60
2023/09/02 11:33:02;;;;;;;3.40;2.43;;;26.50;99.90;;;;;;5115425;28;20832;-60
2023/09/02 11:35:31;;;;;;;2.37;2.17;;;27.20;99.90;;;;;;5114302;28;20468;-61
2023/09/02 11:37:58;;;;;;;2.50;2.30;;;27.60;99.90;;;;;;5116406;28;20948;-61
2023/09/02 11:40:26;;;;;;;3.30;2.10;;;27.30;1.00;;;;;;5116239;28;20530;-60
2023/09/02 11:42:56;;;;;;;2.73;2.53;;;27.20;1.00;;;;;;5114976;28;20775;-60
2023/09/02 11:45:24;;;;;;;2.47;2.27;;;26.80;1.00;;;;;;5115886;28;20465;-60
2023/09/02 11:47:53;;;;;;;3.23;2.47;;;27.50;1.00;;;;;;5117429;28;20487;-60
2023/09/02 11:50:21;;;;;;;2.23;2.00;;;27.90;1.00;;;;;;5117083;28;20743;-60
2023/09/02 11:52:52;;;;;;;3.20;2.90;;;28.20;1.00;;;;;;5117549;28;20888;-60
2023/09/02 11:55:19;;;;;;;2.77;2.57;;;27.70;1.00;;;;;;5116894;28;20483;-61
2023/09/02 11:57:47;;;;;;;2.50;2.23;;;27.00;1.00;;;;;;5117473;28;20451;-60
2023/09/02 12:00:19;;;;;;;3.27;2.40;;;26.30;1.00;;;;;;5117211;28;20462;-60
2023/09/02 12:02:47;;;;;;;2.73;2.40;;;25.90;1.00;;;;;;5117063;28;20546;-61
2023/09/02 12:05:16;;;;;;;2.20;2.00;;;25.30;1.00;;;;;;5117130;28;20455;-61
2023/09/02 12:07:45;;;;;;;3.00;2.70;;;24.60;1.00;;;;;;5117402;28;20585;-61
2023/09/02 12:10:14;;;;;;;3.40;2.53;;;24.10;1.00;;;;;;5116448;28;20904;-61
2023/09/02 12:12:43;;;;;;;3.03;2.30;;;24.20;8.70;;;;;;5117066;28;20491;-60
2023/09/02 12:15:14;;;;;;;6.43;2.60;;;23.90;2.90;;;;;;5117013;28;20455;-60
2023/09/02 12:17:42;;;;;;;2.97;2.60;;;23.90;45.80;;;;;;5117475;28;20487;-61
2023/09/02 12:20:11;;;;;;;3.73;2.60;;;23.80;46.50;;;;;;5117312;28;20539;-60
2023/09/02 12:22:42;;;;;;;2.90;2.60;;;23.90;99.90;;;;;;5117283;28;20455;-60
2023/09/02 12:25:17;;;;;;;2.60;2.30;;;24.10;84.40;;;;;;5117332;28;20813;-60
2023/09/02 12:27:44;;;;;;;4.13;3.20;;;24.10;64.30;;;;;;5115991;28;20757;-61
2023/09/02 12:30:13;;;;;;;3.40;2.57;;;24.30;99.90;;;;;;5116469;28;20466;-61
2023/09/02 12:32:40;;;;;;;3.20;2.73;;;24.70;60.90;;;;;;5115394;28;20512;-60
2023/09/02 12:35:09;;;;;;;2.70;2.50;;;25.00;43.40;;;;;;5116793;28;20469;-60
2023/09/02 12:37:37;;;;;;;4.33;2.10;;;24.10;1.00;;;;;;5120586;28;20479;-61
2023/09/02 12:40:13;;;;;;;3.07;2.60;;;23.80;20.70;;;;;;5120628;28;20749;-61
2023/09/02 12:42:41;;;;;;;2.73;2.53;;;23.70;82.90;;;;;;5115679;28;20481;-61
2023/09/02 12:45:10;;;;;;;2.70;2.50;;;23.70;99.90;;;;;;5119947;28;20768;-61
2023/09/02 12:47:41;;;;;;;2.80;2.50;;;23.20;99.90;;;;;;5119325;28;20558;-61